Latest Weather Observations for Armidale Airport

IDN60801

Issued at 2:35 pm EDT Saturday 1 November 2014 (issued every 30 minutes, with the page automatically refreshed every 10 minutes)

About weather observations | Map of weather stations | Latest weather observations for NSW | Other Formats
Station Details ID: 056238 Name: ARMIDALE AIRPORT AWS Lat: -30.53 Lon: 151.62 Height: 1079.0 m
Data from the previous 72 hours. | See also: Recent months for locations in New South Wales
Date/Time
EDT
Temp
°C
App
Temp
°C
Dew
Point
Rel
Hum
%
Delta-T
°C
Wind Press
QNH
hPa
Press
MSL
hPa
Rain
since 9 am
mm
Dir
 
Spd
km/h
Gust
km/h
Spd
kts
Gust
kts
01/02:30pm 26.5 17.9 10.2 36 9.5 NNW 46 69 25 37 1011.3 1006.7 0.2
01/02:00pm 26.1 16.2 9.9 36 9.4 NW 52 72 28 39 1011.8 1007.3 0.2
01/01:31pm 26.4 18.3 10.1 36 9.5 NW 43 61 23 33 1012.3 1007.7 0.2
01/01:30pm 26.5 18.2 10.2 36 9.5 NW 44 61 24 33 1012.3 1007.7 0.2
01/01:17pm 25.3 16.4 9.2 36 9.2 NNW 46 65 25 35 1012.5 1008.0 0.2
01/01:00pm 25.0 16.5 9.3 37 9.0 NW 44 57 24 31 1012.9 1008.4 0.2
01/12:53pm 25.0 17.5 9.3 37 9.0 NNW 39 57 21 31 1013.0 1008.5 0.2
01/12:30pm 26.0 18.7 10.2 37 9.2 NNW 39 54 21 29 1013.4 1008.9 0.2
01/12:08pm 24.0 16.3 8.8 38 8.6 NNW 39 63 21 34 1013.8 1009.3 0.2
01/12:00pm 25.1 18.3 10.6 40 8.5 NNW 37 52 20 28 1014.1 1009.7 0.2
01/11:36am 25.0 18.6 10.8 41 8.3 NNW 35 54 19 29 1014.5 1010.0 0.0
01/11:30am 24.7 18.0 9.8 39 8.6 NNW 35 52 19 28 1014.5 1010.0 0.0
01/11:00am 23.3 16.8 10.4 44 7.5 N 35 48 19 26 1014.8 1010.3 0.0
01/10:30am 22.7 16.5 9.5 43 7.5 NNW 32 44 17 24 1014.8 1011.6 0.0
01/10:00am 20.9 14.4 10.4 51 6.0 NNW 35 54 19 29 1014.6 1011.4 0.0
01/09:37am 17.7 11.7 12.2 70 3.2 NW 35 54 19 29 1015.4 1012.2 0.0
01/09:30am 17.9 11.0 11.7 67 3.6 NW 39 54 21 29 1015.4 1012.2 0.0
01/09:18am 18.4 10.8 11.7 65 3.9 NW 43 56 23 30 1015.1 1011.9 0.0
01/09:00am 19.1 15.2 12.1 64 4.1 NW 24 37 13 20 1015.3 1012.0 0.0
01/08:45am 17.0 12.4 12.3 74 2.7 NNW 28 46 15 25 1015.4 1012.2 0.0
01/08:30am 17.1 11.5 12.2 73 2.8 NW 33 50 18 27 1015.7 1012.5 0.0
01/08:15am 17.5 12.8 12.0 70 3.2 NW 28 48 15 26 1016.1 1013.0 0.0
01/08:00am 17.5 12.9 12.4 72 3.0 NW 28 37 15 20 1016.3 1013.1 0.0
01/07:30am 16.4 13.7 12.8 79 2.1 NW 19 28 10 15 1016.0 1012.8 0.0
01/07:00am 16.0 13.0 12.7 81 1.9 NNW 20 33 11 18 1016.0 1012.8 0.0
01/06:30am 16.3 11.7 12.3 77 2.3 NNW 28 39 15 21 1015.7 1012.5 0.0
01/06:00am 16.5 12.6 12.1 75 2.5 NNW 24 35 13 19 1015.8 1012.6 0.0
01/05:30am 16.1 13.0 11.5 74 2.6 N 19 33 10 18 1015.8 1012.6 0.0
01/05:00am 15.1 9.8 11.1 77 2.3 N 30 44 16 24 1015.8 1012.6 0.0
01/04:30am 15.8 12.2 11.8 77 2.3 N 22 32 12 17 1015.6 1012.4 0.0
01/04:00am 15.4 10.4 12.2 81 1.8 N 30 43 16 23 1015.8 1012.6 0.0
01/03:30am 17.6 11.4 9.2 58 4.6 N 32 46 17 25 1016.1 1013.0 0.0
01/03:00am 18.5 12.7 7.9 50 5.7 N 28 44 15 24 1016.1 1013.0 0.0
01/02:30am 18.5 14.1 9.0 54 5.2 NNW 22 35 12 19 1016.0 1012.8 0.0
01/02:00am 18.3 12.2 9.9 58 4.7 NNW 32 46 17 25 1015.9 1012.7 0.0
01/01:48am 18.7 12.5 10.0 57 4.9 NNW 33 54 18 29 1015.9 1012.7 0.0
01/01:30am 19.3 13.6 9.8 54 5.3 NNW 30 39 16 21 1016.0 1012.8 0.0
01/01:00am 19.9 14.1 9.5 51 5.8 NNW 30 39 16 21 1016.3 1013.1 0.0
01/12:34am 20.1 14.3 8.1 46 6.6 NNW 28 46 15 25 1016.6 1013.4 0.0
01/12:30am 20.2 14.0 7.9 45 6.7 NNW 30 46 16 25 1016.5 1013.3 0.0
01/12:00am 20.5 14.9 7.2 42 7.2 NNW 26 35 14 19 1016.9 1013.8 0.0
 
Date/Time
EDT
Temp
°C
App
Temp
°C
Dew
Point
Rel
Hum
%
Delta-T
°C
Wind Press
QNH
hPa
Press
MSL
hPa
Rain
since 9 am
mm
Dir
 
Spd
km/h
Gust
km/h
Spd
kts
Gust
kts
31/11:30pm 21.2 16.0 5.5 36 8.2 NNW 22 33 12 18 1017.1 1014.0 0.0
31/11:00pm 19.3 15.8 5.4 40 7.2 NNE 13 15 7 8 1016.9 1013.8 0.0
31/10:30pm 21.4 17.0 4.9 34 8.6 N 17 24 9 13 1016.7 1013.5 0.0
31/10:00pm 22.3 17.6 6.1 35 8.6 N 20 28 11 15 1016.8 1013.6 0.0
31/09:30pm 21.7 17.1 6.4 37 8.2 N 20 26 11 14 1016.9 1013.8 0.0
31/09:00pm 20.8 16.9 3.5 32 8.7 N 13 20 7 11 1016.1 1013.0 0.0
31/08:30pm 23.0 18.6 4.5 30 9.6 NNW 17 19 9 10 1015.9 1012.7 0.0
31/08:00pm 21.8 18.4 3.9 31 9.2 NNW 11 13 6 7 1015.5 1012.3 0.0
31/07:30pm 23.0 19.3 2.5 26 10.3 NNW 11 13 6 7 1015.1 1011.9 0.0
31/07:00pm 25.2 21.1 2.0 22 11.7 NNW 13 17 7 9 1014.8 1011.6 0.0
31/06:30pm 25.9 22.1 3.8 24 11.6 NNW 13 17 7 9 1014.6 1011.4 0.0
31/06:00pm 27.0 23.0 0.7 18 13.1 NW 11 19 6 10 1014.7 1011.5 0.0
31/05:30pm 27.3 22.6 0.9 18 13.2 NNW 15 20 8 11 1014.7 1011.5 0.0
31/05:00pm 27.8 22.8 -1.2 15 14.1 WNW 15 24 8 13 1014.7 1011.5 0.0
31/04:30pm 29.3 25.2 0.0 15 14.7 NW 11 22 6 12 1014.8 1011.6 0.0
31/04:00pm 28.8 23.7 -2.3 13 14.9 S 15 22 8 12 1015.1 1011.9 0.0
31/03:30pm 29.3 22.6 -0.9 14 14.9 WNW 24 37 13 20 1015.5 1012.3 0.0
31/03:00pm 29.4 24.5 1.8 17 14.3 NW 17 22 9 12 1015.7 1012.5 0.0
31/02:30pm 29.3 22.9 0.9 16 14.4 NW 24 35 13 19 1016.3 1013.1 0.0
31/02:00pm 28.6 22.9 -0.5 15 14.4 WNW 19 24 10 13 1016.8 1013.6 0.0
31/01:30pm 29.1 22.6 -2.1 13 15.0 NW 22 32 12 17 1017.3 1014.1 0.0
31/01:00pm 27.4 22.6 4.5 23 12.2 NNW 19 26 10 14 1017.9 1014.8 0.0
31/12:30pm 27.5 23.7 7.4 28 11.3 WNW 17 30 9 16 1018.4 1015.2 0.0
31/12:00pm 26.8 20.5 1.3 19 12.8 NNW 24 35 13 19 1018.9 1015.8 0.0
31/11:30am 26.6 21.0 7.1 29 10.8 NW 26 33 14 18 1019.3 1016.1 0.0
31/11:00am 26.4 21.9 5.9 27 11.1 NNW 19 26 10 14 1019.5 1016.4 0.0
31/10:30am 25.5 21.5 5.1 27 10.9 NNW 15 24 8 13 1019.8 1016.7 0.0
31/10:00am 25.4 21.4 5.1 27 10.8 NW 15 26 8 14 1019.8 1016.7 0.0
31/09:30am 24.3 21.0 2.5 24 11.0 WNW 9 15 5 8 1019.8 1016.7 0.0
31/09:00am 23.3 19.7 2.7 26 10.4 NNE 11 17 6 9 1019.9 1016.8 0.0
31/08:30am 21.6 19.3 4.7 33 8.8 N 6 9 3 5 1019.8 1016.7 0.0
31/08:00am 16.8 14.4 5.4 47 5.8 W 7 9 4 5 1019.8 1016.7 0.0
31/07:30am 17.5 14.6 4.8 43 6.4 ENE 9 11 5 6 1019.6 1016.5 0.0
31/07:00am 15.4 12.6 5.3 51 5.1 NE 9 11 5 6 1019.4 1016.2 0.0
31/06:30am 11.8 8.6 5.0 63 3.3 ENE 11 13 6 7 1019.0 1015.9 0.0
31/06:00am 10.7 7.4 4.4 65 3.0 ENE 11 13 6 7 1018.7 1015.6 0.0
31/05:30am 10.9 7.5 3.9 62 3.3 NE 11 13 6 7 1018.6 1015.5 0.0
31/05:00am 12.1 9.3 3.3 55 4.1 ENE 7 9 4 5 1018.5 1015.3 0.0
31/04:30am 11.6 8.5 3.4 57 3.9 ENE 9 11 5 6 1018.3 1015.1 0.0
31/04:00am 11.7 8.4 2.7 54 4.2 NNE 9 9 5 5 1018.3 1015.1 0.0
31/03:30am 10.9 7.7 3.2 59 3.6 NE 9 11 5 6 1018.3 1015.1 0.0
31/03:00am 11.5 7.8 2.5 54 4.1 ENE 11 11 6 6 1018.3 1015.1 0.0
31/02:30am 12.2 8.9 2.4 51 4.5 NE 9 9 5 5 1018.5 1015.3 0.0
31/02:00am 11.9 8.5 2.1 51 4.5 NE 9 11 5 6 1018.7 1015.6 0.0
31/01:30am 11.3 7.6 2.3 54 4.1 ENE 11 13 6 7 1018.9 1015.8 0.0
31/01:00am 12.4 9.4 2.0 49 4.8 NE 7 9 4 5 1019.3 1016.1 0.0
31/12:30am 12.4 8.6 2.0 49 4.8 NE 11 15 6 8 1019.4 1016.2 0.0
31/12:00am 14.4 10.2 1.7 42 5.9 ENE 13 15 7 8 1019.5 1016.4 0.0
 
Date/Time
EDT
Temp
°C
App
Temp
°C
Dew
Point
Rel
Hum
%
Delta-T
°C
Wind Press
QNH
hPa
Press
MSL
hPa
Rain
since 9 am
mm
Dir
 
Spd
km/h
Gust
km/h
Spd
kts
Gust
kts
30/11:30pm 13.7 9.3 2.9 48 5.1 NE 15 17 8 9 1019.5 1016.4 0.0
30/11:00pm 13.2 10.3 1.2 44 5.4 E 6 11 3 6 1019.3 1016.1 0.0
30/10:30pm 16.4 13.4 0.9 35 7.2 WSW 6 7 3 4 1019.1 1016.0 0.0
30/10:00pm 17.2 14.0 0.8 33 7.6 SW 7 9 4 5 1019.0 1015.9 0.0
30/09:30pm 17.5 13.6 1.1 33 7.7 SSW 11 13 6 7 1019.0 1015.9 0.0
30/09:00pm 18.2 14.3 1.3 32 8.0 SSW 11 13 6 7 1018.8 1015.7 0.0
30/08:30pm 18.4 14.2 1.4 32 8.1 SSW 13 15 7 8 1018.7 1015.6 0.0
30/08:00pm 19.2 15.3 1.2 30 8.6 SSW 11 13 6 7 1018.5 1015.3 0.0
30/07:30pm 20.2 15.9 1.1 28 9.2 SSW 13 15 7 8 1018.1 1015.0 0.0
30/07:00pm 21.3 17.0 1.0 26 9.8 SW 13 15 7 8 1017.9 1014.8 0.0
30/06:30pm 23.5 18.8 1.2 23 11.0 SW 15 20 8 11 1017.6 1014.4 0.0
30/06:00pm 25.2 20.7 2.0 22 11.7 SW 15 20 8 11 1017.4 1014.2 0.0
30/05:30pm 24.3 18.9 1.2 22 11.4 SW 19 28 10 15 1017.3 1014.1 0.0
30/05:00pm 24.7 19.5 2.2 23 11.4 WSW 19 28 10 15 1017.3 1014.1 0.0
30/04:30pm 25.6 19.6 1.0 20 12.2 SW 22 30 12 16 1017.1 1014.0 0.0
30/04:00pm 26.2 20.5 0.8 19 12.6 WSW 20 35 11 19 1017.0 1013.9 0.0
30/03:30pm 26.0 19.7 1.3 20 12.4 W 24 35 13 19 1017.3 1014.1 0.0
30/03:00pm 26.1 20.8 2.1 21 12.2 WSW 19 26 10 14 1017.6 1014.4 0.0
30/02:30pm 26.7 19.8 0.4 18 13.0 WSW 26 35 14 19 1017.8 1014.7 0.0
30/02:00pm 25.6 20.1 4.1 25 11.3 W 22 33 12 18 1018.1 1015.0 0.0
30/01:30pm 24.7 20.3 5.0 28 10.5 WNW 17 28 9 15 1018.7 1015.6 0.0
30/01:00pm 24.5 19.7 5.8 30 10.0 WNW 20 32 11 17 1019.0 1015.9 0.0
30/12:30pm 23.7 18.6 4.1 28 10.2 WNW 20 32 11 17 1019.4 1016.2 0.0
30/12:00pm 23.3 18.0 5.2 31 9.5 W 22 33 12 18 1019.8 1016.7 0.0
30/11:30am 23.4 17.0 3.4 27 10.2 W 26 37 14 20 1020.0 1016.9 0.0
30/11:00am 22.4 19.2 7.0 37 8.3 W 13 26 7 14 1020.3 1017.2 0.0
30/10:30am 21.7 17.6 8.6 43 7.3 WNW 20 28 11 15 1020.3 1017.2 0.0
30/10:00am 21.1 17.2 8.7 45 6.9 W 19 24 10 13 1020.5 1017.4 0.0
30/09:30am 20.4 17.0 9.3 49 6.2 W 17 22 9 12 1020.6 1017.5 0.0
30/09:00am 19.4 15.4 9.0 51 5.7 WNW 20 28 11 15 1020.6 1017.5 0.0
30/08:30am 18.3 14.3 9.1 55 5.1 NW 20 26 11 14 1020.3 1017.2 0.0
30/08:00am 16.2 13.7 9.8 66 3.5 NW 13 17 7 9 1020.0 1016.9 0.0
30/07:30am 13.4 12.1 10.0 80 1.9 WNW 7 11 4 6 1019.9 1016.8 0.0
30/07:00am 11.0 9.9 10.8 99 0.1 WNW 7 7 4 4 1019.7 1016.6 0.0
30/06:30am 8.9 8.3 8.8 99 0.1 W 2 7 1 4 1019.5 1016.4 0.0
30/06:00am 7.8 7.3 7.7 99 0.1 CALM 0 0 0 0 1019.1 1016.0 0.0
30/05:39am 8.3 7.9 8.2 99 0.1 CALM 0 0 0 0 1019.0 1015.9 0.0
30/05:30am 8.1 7.6 8.0 99 0.1 CALM 0 0 0 0 1019.0 1015.9 0.0
30/05:00am 6.2 3.9 5.9 98 0.1 W 7 9 4 5 1018.8 1015.7 0.0
30/04:51am 7.1 5.2 6.8 98 0.1 WNW 6 9 3 5 1018.8 1015.7 0.0
30/04:30am 8.1 6.5 7.8 98 0.2 NE 6 9 3 5 1018.6 1015.5 0.0
30/04:00am 8.4 6.1 7.6 95 0.4 ESE 9 11 5 6 1018.5 1015.3 0.0
30/03:30am 9.9 8.1 9.4 97 0.3 E 9 9 5 5 1018.5 1015.3 0.0
30/03:00am 10.3 7.4 9.8 97 0.3 E 15 17 8 9 1018.6 1015.5 0.0
30/02:30am 10.8 7.7 10.2 96 0.3 ENE 17 20 9 11 1018.6 1015.5 0.0
30/02:00am 10.5 7.4 10.2 98 0.2 E 17 20 9 11 1018.7 1015.6 0.0
30/01:30am 10.6 7.8 10.0 96 0.3 E 15 17 8 9 1018.8 1015.7 0.0
30/01:00am 11.2 7.7 10.3 94 0.5 ENE 19 20 10 11 1019.3 1016.1 0.0
30/12:30am 11.4 7.8 10.0 91 0.8 ENE 19 20 10 11 1019.5 1016.4 0.0
30/12:00am 12.1 8.6 10.2 88 1.0 ENE 19 22 10 12 1019.7 1016.6 0.0
 
Date/Time
EDT
Temp
°C
App
Temp
°C
Dew
Point
Rel
Hum
%
Delta-T
°C
Wind Press
QNH
hPa
Press
MSL
hPa
Rain
since 9 am
mm
Dir
 
Spd
km/h
Gust
km/h
Spd
kts
Gust
kts
29/11:30pm 12.4 8.4 10.3 87 1.1 E 22 28 12 15 1019.9 1016.8 0.0
29/11:00pm 12.4 8.9 10.1 86 1.2 E 19 22 10 12 1020.0 1016.9 0.0
29/10:30pm 12.9 9.2 10.1 83 1.5 E 20 26 11 14 1020.1 1017.0 0.0
29/10:00pm 13.4 10.2 10.0 80 1.9 E 17 22 9 12 1020.1 1017.0 0.0
29/09:30pm 14.1 10.5 9.9 76 2.3 E 19 26 10 14 1020.0 1016.9 0.0
29/09:00pm 15.0 11.3 9.6 70 2.9 E 19 24 10 13 1019.7 1016.6 0.0
29/08:30pm 16.0 12.5 8.7 62 3.9 E 17 20 9 11 1019.4 1016.2 0.0
29/08:00pm 17.4 13.5 8.5 56 4.8 E 19 28 10 15 1018.9 1015.8 0.0
29/07:30pm 19.5 16.1 1.9 31 8.5 SSW 9 11 5 6 1018.4 1015.2 0.0
29/07:00pm 21.4 17.6 1.6 27 9.7 SW 11 13 6 7 1018.0 1014.9 0.0
29/06:30pm 23.3 17.7 1.0 23 10.9 SSW 20 24 11 13 1017.6 1014.4 0.0
29/06:00pm 24.4 19.4 1.3 22 11.4 WSW 17 24 9 13 1017.5 1014.3 0.0
29/05:30pm 24.8 19.7 1.0 21 11.8 WSW 17 24 9 13 1017.1 1014.0 0.0
29/05:00pm 24.9 20.6 1.1 21 11.8 SW 13 20 7 11 1017.0 1013.9 0.0
29/04:30pm 25.6 20.5 1.0 20 12.2 SSW 17 26 9 14 1017.3 1014.1 0.0
29/04:00pm 24.9 20.8 -0.3 19 12.2 WNW 11 15 6 8 1017.4 1014.2 0.0
29/03:30pm 25.1 21.1 0.6 20 12.1 WNW 11 24 6 13 1017.5 1014.3 0.0
29/03:00pm 24.8 20.3 -0.4 19 12.1 WSW 13 24 7 13 1017.9 1014.8 0.0

Other Formats:

Comma delimited format used in spreadsheet applications
http://www.bom.gov.au/fwo/IDN60801/IDN60801.95773.axf

JavaScript Object Notation format (JSON) in row-major order
http://www.bom.gov.au/fwo/IDN60801/IDN60801.95773.json